This is the latest recevied weather packets stored in our database for station/object N4UUJ-1. If no packets are shown the sender has not sent any weather packets the latest 10 day(s).
| Time | Temp. | Humidity | Pressure | Rain* | Wind** | Luminosity | Snow |
|---|---|---|---|---|---|---|---|
| 1787995241 | 16.67° C | 75% | 1022.2 hPa | 0 mm | - | - | - |
| 1787993440 | 16.67° C | 75% | 1022.1 hPa | 0 mm | - | - | - |
| 1787991639 | 16.67° C | 75% | 1022.1 hPa | 0 mm | - | - | - |
| 1787989838 | 16.67° C | 75% | 1021.9 hPa | 0 mm | - | - | - |
| 1787988037 | 17.22° C | 75% | 1021.7 hPa | 0 mm | - | - | - |
| 1787986236 | 17.22° C | 75% | 1021.8 hPa | 0 mm | - | - | - |
| 1787984435 | 17.78° C | 75% | 1021.8 hPa | 0 mm | - | - | - |
| 1787982634 | 17.78° C | 75% | 1021.9 hPa | 0 mm | - | - | - |
| 1787980833 | 17.78° C | 75% | 1022.1 hPa | 0 mm | - | - | - |
| 1787979032 | 18.33° C | 75% | 1022.1 hPa | 0 mm | - | - | - |
| 1787977231 | 18.33° C | 75% | 1022.2 hPa | 0 mm | - | - | - |
| 1787975430 | 18.89° C | 75% | 1022.1 hPa | 0 mm | - | - | - |
| 1787973629 | 19.44° C | 75% | 1022 hPa | 0 mm | - | - | - |
| 1787971828 | 19.44° C | 75% | 1021.8 hPa | 0 mm | - | - | - |
| 1787970027 | 19.44° C | 75% | 1021.8 hPa | 0 mm | - | - | - |
| 1787968226 | 20° C | 75% | 1021.4 hPa | 0 mm | - | - | - |
| 1787966425 | 20.56° C | 75% | 1020.9 hPa | 0 mm | - | - | - |
| 1787964624 | 21.67° C | 75% | 1020.6 hPa | 0 mm | - | - | - |
| 1787962823 | 22.78° C | 75% | 1020.5 hPa | 0 mm | - | - | - |
| 1787961022 | 26.11° C | 75% | 1020.1 hPa | 0 mm | - | - | - |
| 1787959221 | 26.11° C | 75% | 1020.1 hPa | 0 mm | - | - | - |
| 1787957420 | 26.67° C | 75% | 1020.1 hPa | 0 mm | - | - | - |
| 1787955619 | 27.22° C | 75% | 1020.2 hPa | 0 mm | - | - | - |
| 1787953819 | 27.78° C | 75% | 1020.1 hPa | 0 mm | - | - | - |
| 1787952017 | 28.33° C | 75% | 1020.2 hPa | 0 mm | - | - | - |
* Rain latest hour (hover to see other rain measurements)
** Current wind speed in m/s (hover to see current wind gust speed)